sensor_id;sensor_type;location;lat;lon;timestamp;pressure;altitude;pressure_sealevel;temperature;humidity
43312;BME280;30041;48.300;16.352;2023-04-28T00:02:00;100148.56;;;22.44;40.77
43312;BME280;30041;48.300;16.352;2023-04-28T00:04:25;100141.50;;;22.43;40.69
43312;BME280;30041;48.300;16.352;2023-04-28T00:06:51;100137.97;;;22.43;40.88
43312;BME280;30041;48.300;16.352;2023-04-28T00:09:16;100140.69;;;22.43;40.73
43312;BME280;30041;48.300;16.352;2023-04-28T00:11:45;100136.91;;;22.44;40.77
43312;BME280;30041;48.300;16.352;2023-04-28T00:14:12;100139.88;;;22.42;40.94
43312;BME280;30041;48.300;16.352;2023-04-28T00:16:37;100135.28;;;22.43;40.70
43312;BME280;30041;48.300;16.352;2023-04-28T00:19:03;100130.69;;;22.43;40.62
43312;BME280;30041;48.300;16.352;2023-04-28T00:21:28;100133.41;;;22.43;40.78
43312;BME280;30041;48.300;16.352;2023-04-28T00:23:54;100130.69;;;22.43;40.82
43312;BME280;30041;48.300;16.352;2023-04-28T00:26:19;100130.09;;;22.41;40.81
43312;BME280;30041;48.300;16.352;2023-04-28T00:28:45;100129.88;;;22.43;40.66
43312;BME280;30041;48.300;16.352;2023-04-28T00:31:11;100123.66;;;22.42;40.73
43312;BME280;30041;48.300;16.352;2023-04-28T00:33:38;100125.78;;;22.40;40.68
43312;BME280;30041;48.300;16.352;2023-04-28T00:36:04;100122.00;;;22.41;40.77
43312;BME280;30041;48.300;16.352;2023-04-28T00:38:30;100124.97;;;22.40;40.76
43312;BME280;30041;48.300;16.352;2023-04-28T00:40:55;100122.25;;;22.40;40.78
43312;BME280;30041;48.300;16.352;2023-04-28T00:43:21;100119.31;;;22.41;40.91
43312;BME280;30041;48.300;16.352;2023-04-28T00:45:50;100119.06;;;22.43;40.59
43312;BME280;30041;48.300;16.352;2023-04-28T00:48:17;100116.59;;;22.41;40.97
43312;BME280;30041;48.300;16.352;2023-04-28T00:50:45;100119.56;;;22.40;40.88
43312;BME280;30041;48.300;16.352;2023-04-28T00:53:12;100115.78;;;22.41;40.71
43312;BME280;30041;48.300;16.352;2023-04-28T00:55:38;100116.00;;;22.39;40.91
43312;BME280;30041;48.300;16.352;2023-04-28T00:58:07;100117.66;;;22.40;40.74
43312;BME280;30041;48.300;16.352;2023-04-28T01:00:33;100117.06;;;22.38;40.79
43312;BME280;30041;48.300;16.352;2023-04-28T01:02:59;100120.59;;;22.38;40.98
43312;BME280;30041;48.300;16.352;2023-04-28T01:05:25;100111.91;;;22.36;40.86
43312;BME280;30041;48.300;16.352;2023-04-28T01:07:52;100112.72;;;22.37;40.72
43312;BME280;30041;48.300;16.352;2023-04-28T01:10:17;100114.38;;;22.38;40.72
43312;BME280;30041;48.300;16.352;2023-04-28T01:12:43;100107.78;;;22.34;41.15
43312;BME280;30041;48.300;16.352;2023-04-28T01:15:17;100107.78;;;22.34;40.94
43312;BME280;30041;48.300;16.352;2023-04-28T01:17:43;100108.16;;;22.37;40.80
43312;BME280;30041;48.300;16.352;2023-04-28T01:20:09;100111.66;;;22.38;40.66
43312;BME280;30041;48.300;16.352;2023-04-28T01:22:35;100109.44;;;22.35;40.92
43312;BME280;30041;48.300;16.352;2023-04-28T01:25:01;100103.78;;;22.36;40.63
43312;BME280;30041;48.300;16.352;2023-04-28T01:27:26;100104.28;;;22.33;41.03
43312;BME280;30041;48.300;16.352;2023-04-28T01:29:51;100099.69;;;22.34;40.74
43312;BME280;30041;48.300;16.352;2023-04-28T01:32:17;100099.47;;;22.35;40.95
43312;BME280;30041;48.300;16.352;2023-04-28T01:34:42;100096.75;;;22.35;40.86
43312;BME280;30041;48.300;16.352;2023-04-28T01:37:08;100087.00;;;22.34;40.94
43312;BME280;30041;48.300;16.352;2023-04-28T01:39:33;100094.28;;;22.34;40.68
43312;BME280;30041;48.300;16.352;2023-04-28T01:41:59;100089.69;;;22.34;40.70
43312;BME280;30041;48.300;16.352;2023-04-28T01:44:24;100087.25;;;22.33;40.91
43312;BME280;30041;48.300;16.352;2023-04-28T01:46:50;100091.00;;;22.32;40.99
43312;BME280;30041;48.300;16.352;2023-04-28T01:49:15;100091.59;;;22.34;40.91
43312;BME280;30041;48.300;16.352;2023-04-28T01:51:41;100096.41;;;22.32;40.99
43312;BME280;30041;48.300;16.352;2023-04-28T01:54:06;100101.78;;;22.32;40.73
43312;BME280;30041;48.300;16.352;2023-04-28T01:56:32;100096.41;;;22.32;41.10
43312;BME280;30041;48.300;16.352;2023-04-28T01:58:57;100098.06;;;22.33;40.71
43312;BME280;30041;48.300;16.352;2023-04-28T02:01:23;100096.41;;;22.32;40.93
43312;BME280;30041;48.300;16.352;2023-04-28T02:03:48;100087.47;;;22.31;40.77
43312;BME280;30041;48.300;16.352;2023-04-28T02:06:14;100086.66;;;22.31;40.93
43312;BME280;30041;48.300;16.352;2023-04-28T02:08:39;100094.75;;;22.31;40.89
43312;BME280;30041;48.300;16.352;2023-04-28T02:11:04;100095.56;;;22.31;40.89
43312;BME280;30041;48.300;16.352;2023-04-28T02:13:30;100097.22;;;22.32;40.93
43312;BME280;30041;48.300;16.352;2023-04-28T02:15:59;100092.88;;;22.31;40.78
43312;BME280;30041;48.300;16.352;2023-04-28T02:18:25;100090.41;;;22.30;40.70
43312;BME280;30041;48.300;16.352;2023-04-28T02:20:50;100096.88;;;22.29;40.88
43312;BME280;30041;48.300;16.352;2023-04-28T02:23:16;100095.81;;;22.30;40.85
43312;BME280;30041;48.300;16.352;2023-04-28T02:25:41;100092.50;;;22.28;40.99
43312;BME280;30041;48.300;16.352;2023-04-28T02:28:07;100097.47;;;22.31;40.85
43312;BME280;30041;48.300;16.352;2023-04-28T02:30:32;100092.28;;;22.29;40.71
43312;BME280;30041;48.300;16.352;2023-04-28T02:32:58;100096.63;;;22.30;40.82
43312;BME280;30041;48.300;16.352;2023-04-28T02:35:23;100096.06;;;22.28;40.75
43312;BME280;30041;48.300;16.352;2023-04-28T02:37:49;100090.88;;;22.27;40.85
43312;BME280;30041;48.300;16.352;2023-04-28T02:40:14;100093.56;;;22.27;40.92
43312;BME280;30041;48.300;16.352;2023-04-28T02:42:40;100090.66;;;22.28;40.95
43312;BME280;30041;48.300;16.352;2023-04-28T02:45:06;100093.56;;;22.27;40.96
43312;BME280;30041;48.300;16.352;2023-04-28T02:47:31;100093.56;;;22.27;40.82
43312;BME280;30041;48.300;16.352;2023-04-28T02:49:57;100090.06;;;22.26;40.93
43312;BME280;30041;48.300;16.352;2023-04-28T02:52:22;100089.00;;;22.27;40.89
43312;BME280;30041;48.300;16.352;2023-04-28T02:54:47;100091.69;;;22.27;41.00
43312;BME280;30041;48.300;16.352;2023-04-28T02:57:13;100089.22;;;22.26;40.73
43312;BME280;30041;48.300;16.352;2023-04-28T02:59:39;100086.28;;;22.27;40.95
43312;BME280;30041;48.300;16.352;2023-04-28T03:02:04;100079.00;;;22.28;40.91
43312;BME280;30041;48.300;16.352;2023-04-28T03:04:30;100075.72;;;22.26;40.96
43312;BME280;30041;48.300;16.352;2023-04-28T03:06:55;100074.91;;;22.25;40.90
43312;BME280;30041;48.300;16.352;2023-04-28T03:09:20;100074.06;;;22.25;41.01
43312;BME280;30041;48.300;16.352;2023-04-28T03:11:46;100067.63;;;22.26;41.01
43312;BME280;30041;48.300;16.352;2023-04-28T03:14:11;100070.56;;;22.24;40.76
43312;BME280;30041;48.300;16.352;2023-04-28T03:16:37;100070.31;;;22.26;40.94
43312;BME280;30041;48.300;16.352;2023-04-28T03:19:02;100067.63;;;22.26;40.91
43312;BME280;30041;48.300;16.352;2023-04-28T03:21:28;100064.09;;;22.25;40.93
43312;BME280;30041;48.300;16.352;2023-04-28T03:23:53;100066.56;;;22.27;40.93
43312;BME280;30041;48.300;16.352;2023-04-28T03:26:19;100063.88;;;22.27;40.93
43312;BME280;30041;48.300;16.352;2023-04-28T03:28:44;100064.91;;;22.26;40.86
43312;BME280;30041;48.300;16.352;2023-04-28T03:31:10;100065.75;;;22.26;40.78
43312;BME280;30041;48.300;16.352;2023-04-28T03:33:35;100062.00;;;22.27;40.92
43312;BME280;30041;48.300;16.352;2023-04-28T03:36:01;100062.22;;;22.26;40.87
43312;BME280;30041;48.300;16.352;2023-04-28T03:38:26;100061.19;;;22.27;40.75
43312;BME280;30041;48.300;16.352;2023-04-28T03:40:52;100062.00;;;22.27;40.91
43312;BME280;30041;48.300;16.352;2023-04-28T03:43:17;100059.06;;;22.29;40.71
43312;BME280;30041;48.300;16.352;2023-04-28T03:45:43;100064.47;;;22.29;40.93
43312;BME280;30041;48.300;16.352;2023-04-28T03:48:08;100061.19;;;22.27;40.93
43312;BME280;30041;48.300;16.352;2023-04-28T03:50:34;100069.06;;;22.28;40.61
43312;BME280;30041;48.300;16.352;2023-04-28T03:52:59;100068.78;;;22.30;40.64
43312;BME280;30041;48.300;16.352;2023-04-28T03:55:25;100056.09;;;22.30;40.92
43312;BME280;30041;48.300;16.352;2023-04-28T03:57:51;100064.22;;;22.30;40.90
43312;BME280;30041;48.300;16.352;2023-04-28T04:00:17;100073.16;;;22.31;41.02
43312;BME280;30041;48.300;16.352;2023-04-28T04:02:42;100070.47;;;22.31;40.97
43312;BME280;30041;48.300;16.352;2023-04-28T04:05:08;100075.84;;;22.31;40.75
43312;BME280;30041;48.300;16.352;2023-04-28T04:07:33;100072.09;;;22.32;40.83
43312;BME280;30041;48.300;16.352;2023-04-28T04:09:59;100067.75;;;22.31;41.05
43312;BME280;30041;48.300;16.352;2023-04-28T04:12:24;100064.00;;;22.32;40.82
43312;BME280;30041;48.300;16.352;2023-04-28T04:14:50;100060.69;;;22.30;40.86
43312;BME280;30041;48.300;16.352;2023-04-28T04:17:15;100065.66;;;22.33;40.98
43312;BME280;30041;48.300;16.352;2023-04-28T04:19:41;100061.28;;;22.32;40.95
43312;BME280;30041;48.300;16.352;2023-04-28T04:22:06;100062.34;;;22.31;40.91
43312;BME280;30041;48.300;16.352;2023-04-28T04:24:32;100064.00;;;22.32;41.17
43312;BME280;30041;48.300;16.352;2023-04-28T04:26:57;100065.16;;;22.36;41.14
43312;BME280;30041;48.300;16.352;2023-04-28T04:29:23;100061.06;;;22.33;40.88
43312;BME280;30041;48.300;16.352;2023-04-28T04:31:48;100061.88;;;22.34;41.22
43312;BME280;30041;48.300;16.352;2023-04-28T04:34:14;100064.59;;;22.34;41.10
43312;BME280;30041;48.300;16.352;2023-04-28T04:36:39;100060.84;;;22.35;41.01
43312;BME280;30041;48.300;16.352;2023-04-28T04:39:04;100055.44;;;22.35;41.16
43312;BME280;30041;48.300;16.352;2023-04-28T04:41:30;100055.44;;;22.35;41.17
43312;BME280;30041;48.300;16.352;2023-04-28T04:43:55;100057.56;;;22.33;41.23
43312;BME280;30041;48.300;16.352;2023-04-28T04:46:21;100052.75;;;22.35;41.18
43312;BME280;30041;48.300;16.352;2023-04-28T04:48:47;100045.69;;;22.34;41.03
43312;BME280;30041;48.300;16.352;2023-04-28T04:51:12;100045.69;;;22.34;41.06
43312;BME280;30041;48.300;16.352;2023-04-28T04:53:38;100042.75;;;22.35;41.07
43312;BME280;30041;48.300;16.352;2023-04-28T04:56:03;100044.38;;;22.36;41.24
43312;BME280;30041;48.300;16.352;2023-04-28T04:58:29;100042.50;;;22.37;41.28
43312;BME280;30041;48.300;16.352;2023-04-28T05:00:55;100044.38;;;22.36;41.00
43312;BME280;30041;48.300;16.352;2023-04-28T05:03:20;100042.75;;;22.35;40.97
43312;BME280;30041;48.300;16.352;2023-04-28T05:05:46;100046.75;;;22.33;41.19
43312;BME280;30041;48.300;16.352;2023-04-28T05:08:12;100041.34;;;22.33;41.17
43312;BME280;30041;48.300;16.352;2023-04-28T05:10:38;100040.75;;;22.31;41.27
43312;BME280;30041;48.300;16.352;2023-04-28T05:13:03;100044.03;;;22.33;41.09
43312;BME280;30041;48.300;16.352;2023-04-28T05:15:29;100054.25;;;22.31;41.29
43312;BME280;30041;48.300;16.352;2023-04-28T05:17:55;100052.38;;;22.31;41.33
43312;BME280;30041;48.300;16.352;2023-04-28T05:20:20;100044.03;;;22.33;41.17
43312;BME280;30041;48.300;16.352;2023-04-28T05:22:46;100039.69;;;22.32;41.32
43312;BME280;30041;48.300;16.352;2023-04-28T05:25:11;100038.66;;;22.33;41.31
43312;BME280;30041;48.300;16.352;2023-04-28T05:27:37;100040.50;;;22.32;41.53
43312;BME280;30041;48.300;16.352;2023-04-28T05:30:03;100041.09;;;22.34;41.59
43312;BME280;30041;48.300;16.352;2023-04-28T05:32:28;100038.66;;;22.33;41.40
43312;BME280;30041;48.300;16.352;2023-04-28T05:34:54;100029.47;;;22.34;41.23
43312;BME280;30041;48.300;16.352;2023-04-28T05:37:19;100030.53;;;22.33;41.65
43312;BME280;30041;48.300;16.352;2023-04-28T05:39:44;100026.56;;;22.35;41.35
43312;BME280;30041;48.300;16.352;2023-04-28T05:42:11;100020.56;;;22.33;41.51
43312;BME280;30041;48.300;16.352;2023-04-28T05:44:37;100024.06;;;22.34;41.46
43312;BME280;30041;48.300;16.352;2023-04-28T05:47:02;100032.41;;;22.32;41.57
43312;BME280;30041;48.300;16.352;2023-04-28T05:49:28;100033.84;;;22.35;41.62
43312;BME280;30041;48.300;16.352;2023-04-28T05:51:53;100029.00;;;22.37;41.34
43312;BME280;30041;48.300;16.352;2023-04-28T05:54:19;100031.94;;;22.35;41.71
43312;BME280;30041;48.300;16.352;2023-04-28T05:56:44;100033.84;;;22.35;41.63
43312;BME280;30041;48.300;16.352;2023-04-28T05:59:10;100032.78;;;22.36;41.78
43312;BME280;30041;48.300;16.352;2023-04-28T06:01:35;100035.25;;;22.37;41.65
43312;BME280;30041;48.300;16.352;2023-04-28T06:04:01;100032.78;;;22.36;41.48
43312;BME280;30041;48.300;16.352;2023-04-28T06:06:26;100033.34;;;22.38;41.56
43312;BME280;30041;48.300;16.352;2023-04-28T06:08:52;100025.25;;;22.38;41.43
43312;BME280;30041;48.300;16.352;2023-04-28T06:11:18;100027.16;;;22.37;41.54
43312;BME280;30041;48.300;16.352;2023-04-28T06:13:43;100018.19;;;22.37;41.38
43312;BME280;30041;48.300;16.352;2023-04-28T06:16:09;100015.28;;;22.38;41.47
43312;BME280;30041;48.300;16.352;2023-04-28T06:18:34;100017.16;;;22.38;41.67
43312;BME280;30041;48.300;16.352;2023-04-28T06:21:00;100016.34;;;22.37;41.67
43312;BME280;30041;48.300;16.352;2023-04-28T06:23:25;100017.97;;;22.38;41.57
43312;BME280;30041;48.300;16.352;2023-04-28T06:25:51;100021.50;;;22.39;41.66
43312;BME280;30041;48.300;16.352;2023-04-28T06:28:16;100019.84;;;22.38;41.51
43312;BME280;30041;48.300;16.352;2023-04-28T06:30:41;100019.38;;;22.41;41.66
43312;BME280;30041;48.300;16.352;2023-04-28T06:33:07;100019.63;;;22.40;41.58
43312;BME280;30041;48.300;16.352;2023-04-28T06:35:32;100015.06;;;22.40;41.68
43312;BME280;30041;48.300;16.352;2023-04-28T06:37:58;100020.44;;;22.40;41.76
43312;BME280;30041;48.300;16.352;2023-04-28T06:40:23;100011.28;;;22.41;41.74
43312;BME280;30041;48.300;16.352;2023-04-28T06:42:49;99999.66;;;22.41;41.61
43312;BME280;30041;48.300;16.352;2023-04-28T06:45:14;99997.19;;;22.39;41.74
43312;BME280;30041;48.300;16.352;2023-04-28T06:47:40;99998.84;;;22.40;41.95
43312;BME280;30041;48.300;16.352;2023-04-28T06:50:06;99989.94;;;22.40;41.83
43312;BME280;30041;48.300;16.352;2023-04-28T06:52:31;99980.97;;;22.39;41.74
43312;BME280;30041;48.300;16.352;2023-04-28T06:54:57;99973.47;;;22.41;41.55
43312;BME280;30041;48.300;16.352;2023-04-28T06:57:22;99977.00;;;22.42;41.55
43312;BME280;30041;48.300;16.352;2023-04-28T06:59:47;99967.84;;;22.43;41.59
43312;BME280;30041;48.300;16.352;2023-04-28T07:02:13;99973.00;;;22.44;42.06
43312;BME280;30041;48.300;16.352;2023-04-28T07:04:38;99972.06;;;22.27;43.58
43312;BME280;30041;48.300;16.352;2023-04-28T07:07:04;99970.75;;;22.17;43.85
43312;BME280;30041;48.300;16.352;2023-04-28T07:09:30;99973.44;;;22.17;43.70
43312;BME280;30041;48.300;16.352;2023-04-28T07:11:55;99962.66;;;22.17;43.32
43312;BME280;30041;48.300;16.352;2023-04-28T07:14:21;99953.88;;;22.22;43.72
43312;BME280;30041;48.300;16.352;2023-04-28T07:16:46;99951.38;;;22.21;43.84
43312;BME280;30041;48.300;16.352;2023-04-28T07:19:11;99956.78;;;22.21;43.80
43312;BME280;30041;48.300;16.352;2023-04-28T07:21:37;99950.09;;;22.11;43.95
43312;BME280;30041;48.300;16.352;2023-04-28T07:24:02;99963.47;;;22.06;43.89
43312;BME280;30041;48.300;16.352;2023-04-28T07:26:28;99966.38;;;22.05;44.02
43312;BME280;30041;48.300;16.352;2023-04-28T07:28:53;99972.28;;;22.02;44.25
43312;BME280;30041;48.300;16.352;2023-04-28T07:31:19;99963.59;;;22.00;44.11
43312;BME280;30041;48.300;16.352;2023-04-28T07:33:44;99970.84;;;21.99;44.12
43312;BME280;30041;48.300;16.352;2023-04-28T07:36:10;99964.75;;;22.04;43.89
43312;BME280;30041;48.300;16.352;2023-04-28T07:38:36;99959.94;;;22.06;43.04
43312;BME280;30041;48.300;16.352;2023-04-28T07:41:02;99955.13;;;21.96;43.23
43312;BME280;30041;48.300;16.352;2023-04-28T07:43:28;99951.81;;;21.94;43.26
43312;BME280;30041;48.300;16.352;2023-04-28T07:45:53;99953.00;;;21.98;43.73
43312;BME280;30041;48.300;16.352;2023-04-28T07:48:19;99955.72;;;21.98;43.83
43312;BME280;30041;48.300;16.352;2023-04-28T07:50:44;99954.06;;;21.97;43.98
43312;BME280;30041;48.300;16.352;2023-04-28T07:53:10;99957.13;;;22.01;44.17
43312;BME280;30041;48.300;16.352;2023-04-28T07:55:35;99958.41;;;21.98;44.33
43312;BME280;30041;48.300;16.352;2023-04-28T07:58:01;99963.91;;;22.03;44.22
43312;BME280;30041;48.300;16.352;2023-04-28T08:00:26;99977.41;;;22.03;44.14
43312;BME280;30041;48.300;16.352;2023-04-28T08:02:52;99971.41;;;22.01;44.18
43312;BME280;30041;48.300;16.352;2023-04-28T08:05:17;99968.28;;;22.04;44.37
43312;BME280;30041;48.300;16.352;2023-04-28T08:07:42;99970.59;;;22.01;44.52
43312;BME280;30041;48.300;16.352;2023-04-28T08:10:09;99960.63;;;22.01;44.68
43312;BME280;30041;48.300;16.352;2023-04-28T08:12:35;99959.59;;;22.02;44.77
43312;BME280;30041;48.300;16.352;2023-04-28T08:15:00;99944.44;;;22.01;44.54
43312;BME280;30041;48.300;16.352;2023-04-28T08:17:26;99958.53;;;22.03;44.62
43312;BME280;30041;48.300;16.352;2023-04-28T08:19:52;99944.22;;;22.03;44.63
43312;BME280;30041;48.300;16.352;2023-04-28T08:22:17;99945.13;;;21.96;44.41
43312;BME280;30041;48.300;16.352;2023-04-28T08:24:43;99930.47;;;21.92;44.76
43312;BME280;30041;48.300;16.352;2023-04-28T08:27:08;99940.44;;;21.92;44.04
43312;BME280;30041;48.300;16.352;2023-04-28T08:29:34;99927.44;;;21.89;44.66
43312;BME280;30041;48.300;16.352;2023-04-28T08:31:59;99928.13;;;22.08;43.47
43312;BME280;30041;48.300;16.352;2023-04-28T08:34:25;99925.69;;;22.06;42.00
43312;BME280;30041;48.300;16.352;2023-04-28T08:36:51;99924.94;;;21.99;44.07
43312;BME280;30041;48.300;16.352;2023-04-28T08:39:16;99913.00;;;21.95;43.61
43312;BME280;30041;48.300;16.352;2023-04-28T08:41:42;99912.06;;;21.89;43.42
43312;BME280;30041;48.300;16.352;2023-04-28T08:44:10;99914.97;;;21.88;43.53
43312;BME280;30041;48.300;16.352;2023-04-28T08:46:39;99913.00;;;22.07;42.58
43312;BME280;30041;48.300;16.352;2023-04-28T08:49:06;99914.16;;;21.99;43.72
43312;BME280;30041;48.300;16.352;2023-04-28T08:51:44;99911.00;;;21.90;43.57
43312;BME280;30041;48.300;16.352;2023-04-28T08:54:10;99906.19;;;21.92;44.21
43312;BME280;30041;48.300;16.352;2023-04-28T08:56:38;99900.78;;;21.92;44.01
43312;BME280;30041;48.300;16.352;2023-04-28T08:59:04;99898.44;;;21.96;42.97
43312;BME280;30041;48.300;16.352;2023-04-28T09:01:30;99893.03;;;22.08;42.34
43312;BME280;30041;48.300;16.352;2023-04-28T09:03:56;99895.41;;;22.16;42.20
43312;BME280;30041;48.300;16.352;2023-04-28T09:06:22;99893.50;;;22.16;42.75
43312;BME280;30041;48.300;16.352;2023-04-28T09:08:47;99898.81;;;22.23;43.17
43312;BME280;30041;48.300;16.352;2023-04-28T09:11:13;99888.09;;;22.16;43.55
43312;BME280;30041;48.300;16.352;2023-04-28T09:13:39;99894.22;;;22.12;44.04
43312;BME280;30041;48.300;16.352;2023-04-28T09:16:05;99894.22;;;22.12;44.20
43312;BME280;30041;48.300;16.352;2023-04-28T09:18:31;99894.91;;;22.19;44.21
43312;BME280;30041;48.300;16.352;2023-04-28T09:21:07;99892.91;;;22.14;44.11
43312;BME280;30041;48.300;16.352;2023-04-28T09:23:33;99883.06;;;22.20;43.98
43312;BME280;30041;48.300;16.352;2023-04-28T09:26:03;99878.72;;;22.19;44.40
43312;BME280;30041;48.300;16.352;2023-04-28T09:28:32;99874.28;;;22.25;44.15
43312;BME280;30041;48.300;16.352;2023-04-28T09:30:58;99876.84;;;22.20;44.41
43312;BME280;30041;48.300;16.352;2023-04-28T09:33:24;99866.06;;;22.20;44.40
43312;BME280;30041;48.300;16.352;2023-04-28T09:35:49;99860.22;;;22.23;44.45
43312;BME280;30041;48.300;16.352;2023-04-28T09:38:15;99850.47;;;22.22;44.52
43312;BME280;30041;48.300;16.352;2023-04-28T09:41:00;99848.59;;;22.10;44.66
43312;BME280;30041;48.300;16.352;2023-04-28T09:43:34;99838.69;;;22.16;44.48
43312;BME280;30041;48.300;16.352;2023-04-28T09:46:04;99828.88;;;22.22;44.35
43312;BME280;30041;48.300;16.352;2023-04-28T09:48:37;99825.78;;;22.18;44.81
43312;BME280;30041;48.300;16.352;2023-04-28T09:51:06;99820.88;;;22.15;44.82
43312;BME280;30041;48.300;16.352;2023-04-28T09:53:32;99816.06;;;22.17;44.93
43312;BME280;30041;48.300;16.352;2023-04-28T09:56:00;99822.16;;;22.36;44.08
43312;BME280;30041;48.300;16.352;2023-04-28T09:58:27;99813.69;;;22.44;43.53
43312;BME280;30041;48.300;16.352;2023-04-28T10:00:55;99813.50;;;22.22;43.92
43312;BME280;30041;48.300;16.352;2023-04-28T10:03:22;99797.25;;;22.34;43.75
43312;BME280;30041;48.300;16.352;2023-04-28T10:05:48;99796.97;;;22.47;43.63
43312;BME280;30041;48.300;16.352;2023-04-28T10:08:14;99795.59;;;22.45;43.83
43312;BME280;30041;48.300;16.352;2023-04-28T10:10:40;99789.25;;;22.39;44.01
43312;BME280;30041;48.300;16.352;2023-04-28T10:13:06;99784.56;;;22.46;43.90
43312;BME280;30041;48.300;16.352;2023-04-28T10:15:33;99782.22;;;22.38;44.09
43312;BME280;30041;48.300;16.352;2023-04-28T10:17:59;99794.31;;;22.35;44.31
43312;BME280;30041;48.300;16.352;2023-04-28T10:20:28;99778.00;;;22.42;44.32
43312;BME280;30041;48.300;16.352;2023-04-28T10:25:48;99768.88;;;22.31;43.43
43312;BME280;30041;48.300;16.352;2023-04-28T10:28:17;99766.06;;;22.26;44.17
43312;BME280;30041;48.300;16.352;2023-04-28T10:31:12;99786.00;;;22.25;44.33
43312;BME280;30041;48.300;16.352;2023-04-28T10:33:39;99766.66;;;22.28;44.35
43312;BME280;30041;48.300;16.352;2023-04-28T10:36:05;99765.94;;;22.33;44.21
43312;BME280;30041;48.300;16.352;2023-04-28T10:38:32;99762.31;;;22.27;44.41
43312;BME280;30041;48.300;16.352;2023-04-28T10:40:57;99761.47;;;22.27;44.36
43312;BME280;30041;48.300;16.352;2023-04-28T10:48:21;99758.19;;;22.25;44.53
43312;BME280;30041;48.300;16.352;2023-04-28T10:56:17;99748.91;;;22.21;44.31
43312;BME280;30041;48.300;16.352;2023-04-28T10:58:45;99749.97;;;22.20;44.36
43312;BME280;30041;48.300;16.352;2023-04-28T11:06:27;99735.09;;;22.17;44.26
43312;BME280;30041;48.300;16.352;2023-04-28T11:08:54;99738.09;;;22.21;44.43
43312;BME280;30041;48.300;16.352;2023-04-28T11:13:53;99733.53;;;22.21;44.38
43312;BME280;30041;48.300;16.352;2023-04-28T11:16:22;99727.31;;;22.21;44.41
43312;BME280;30041;48.300;16.352;2023-04-28T11:18:51;99706.78;;;22.20;44.41
43312;BME280;30041;48.300;16.352;2023-04-28T11:21:20;99700.31;;;22.21;44.36
43312;BME280;30041;48.300;16.352;2023-04-28T11:23:46;99702.44;;;22.18;44.38
43312;BME280;30041;48.300;16.352;2023-04-28T11:26:12;99709.72;;;22.18;44.32
43312;BME280;30041;48.300;16.352;2023-04-28T11:28:48;99698.81;;;22.13;43.07
43312;BME280;30041;48.300;16.352;2023-04-28T11:31:15;99693.44;;;22.13;44.14
43312;BME280;30041;48.300;16.352;2023-04-28T11:33:42;99678.88;;;22.14;44.14
43312;BME280;30041;48.300;16.352;2023-04-28T11:36:21;99672.06;;;22.11;44.31
43312;BME280;30041;48.300;16.352;2023-04-28T11:38:46;99672.66;;;22.13;44.18
43312;BME280;30041;48.300;16.352;2023-04-28T11:41:12;99683.94;;;22.10;44.53
43312;BME280;30041;48.300;16.352;2023-04-28T11:43:37;99671.56;;;22.14;44.44
43312;BME280;30041;48.300;16.352;2023-04-28T11:46:03;99659.72;;;22.15;44.52
43312;BME280;30041;48.300;16.352;2023-04-28T11:48:28;99656.47;;;22.13;44.63
43312;BME280;30041;48.300;16.352;2023-04-28T11:50:54;99654.34;;;22.15;44.37
43312;BME280;30041;48.300;16.352;2023-04-28T11:53:19;99661.63;;;22.15;44.44
43312;BME280;30041;48.300;16.352;2023-04-28T11:55:45;99664.56;;;22.13;44.43
43312;BME280;30041;48.300;16.352;2023-04-28T11:58:19;99662.09;;;22.12;44.51
43312;BME280;30041;48.300;16.352;2023-04-28T12:00:45;99663.97;;;22.11;44.59
43312;BME280;30041;48.300;16.352;2023-04-28T12:03:30;99665.59;;;22.12;44.72
43312;BME280;30041;48.300;16.352;2023-04-28T12:05:55;99658.06;;;22.14;44.60
43312;BME280;30041;48.300;16.352;2023-04-28T12:08:28;99658.06;;;22.14;44.46
43312;BME280;30041;48.300;16.352;2023-04-28T12:11:09;99654.25;;;22.10;44.73
43312;BME280;30041;48.300;16.352;2023-04-28T12:13:36;99664.56;;;22.13;44.49
43312;BME280;30041;48.300;16.352;2023-04-28T12:16:02;99670.75;;;22.14;44.67
43312;BME280;30041;48.300;16.352;2023-04-28T12:18:28;99670.75;;;22.14;44.60
43312;BME280;30041;48.300;16.352;2023-04-28T12:20:53;99673.22;;;22.15;44.66
43312;BME280;30041;48.300;16.352;2023-04-28T12:23:35;99673.16;;;22.10;44.95
43312;BME280;30041;48.300;16.352;2023-04-28T12:26:01;99672.06;;;22.11;44.68
43312;BME280;30041;48.300;16.352;2023-04-28T12:28:39;99670.69;;;22.09;44.75
43312;BME280;30041;48.300;16.352;2023-04-28T12:31:06;99672.06;;;22.11;44.69
43312;BME280;30041;48.300;16.352;2023-04-28T12:33:32;99672.66;;;22.13;44.94
43312;BME280;30041;48.300;16.352;2023-04-28T12:35:58;99678.06;;;22.13;44.79
43312;BME280;30041;48.300;16.352;2023-04-28T12:38:23;99673.56;;;22.19;44.60
43312;BME280;30041;48.300;16.352;2023-04-28T12:40:50;99662.66;;;22.14;44.67
43312;BME280;30041;48.300;16.352;2023-04-28T12:43:15;99664.78;;;22.12;44.72
43312;BME280;30041;48.300;16.352;2023-04-28T12:45:41;99667.16;;;22.08;43.49
43312;BME280;30041;48.300;16.352;2023-04-28T12:48:06;99662.34;;;22.10;44.23
43312;BME280;30041;48.300;16.352;2023-04-28T12:50:32;99656.94;;;22.10;44.17
43312;BME280;30041;48.300;16.352;2023-04-28T12:52:58;99665.28;;;22.09;44.62
43312;BME280;30041;48.300;16.352;2023-04-28T12:55:23;99673.03;;;22.05;44.61
43312;BME280;30041;48.300;16.352;2023-04-28T12:57:49;99661.19;;;22.06;44.62
43312;BME280;30041;48.300;16.352;2023-04-28T13:00:14;99658.22;;;22.08;44.54
43312;BME280;30041;48.300;16.352;2023-04-28T13:02:40;99652.59;;;22.09;44.43